Observations for LIVERPOOL AIRPORT, United Kingdom (EGGP)

EGGP 220520Z 11004KT 9000 SCT046 17/16 Q1019
EGGP 220450Z 10005KT 9000 SCT049 17/16 Q1018
EGGP 220420Z 10004KT 9999 BKN049 17/16 Q1018
EGGP 220350Z 10005KT 9999 FEW046 17/16 Q1018
EGGP 220320Z 12005KT 9999 FEW046 16/16 Q1019
EGGP 220250Z 12004KT 9999 FEW046 16/16 Q1019
EGGP 220220Z 11004KT 9999 FEW048 16/16 Q1019
EGGP 220150Z 12005KT 9999 FEW048 16/16 Q1019
EGGP 220120Z 09005KT 9999 FEW048 16/16 Q1019
EGGP 220050Z 07004KT 9999 FEW047 16/16 Q1019
EGGP 220020Z 07005KT 9999 FEW048 16/16 Q1019
EGGP 212350Z 07005KT 9999 FEW048 16/16 Q1019
EGGP 212320Z 08005KT 9999 FEW048 16/16 Q1019
EGGP 212250Z 13004KT 9999 FEW011 SCT049 17/16 Q1019 
EGGP 212220Z VRB02KT 9999 FEW015 SCT048 17/16 Q1020 
EGGP 212150Z 16003KT 9999 FEW016 SCT022 BKN031 17/17 Q1020  
EGGP 212120Z 16004KT 120V190 9999 SCT016 BKN022 18/17 Q1020 
EGGP 212050Z 11003KT 9999 FEW015 BKN020 18/17 Q1020 
EGGP 212020Z VRB03KT 9999 FEW014 BKN021 17/17 Q1020 
EGGP 211950Z 10004KT 9999 FEW014 BKN024 17/17 Q1020 
EGGP 211920Z 10005KT 9999 FEW024 BKN027 17/17 Q1019 
EGGP 211850Z 08006KT 9999 FEW020 BKN030 18/17 Q1019 
EGGP 211820Z 11006KT 9999 9000E FEW020 SCT030 BKN040 18/17 Q1019
EGGP 211750Z 10005KT 9999 VCSH FEW009 SCT015 BKN022 17/17 Q1019 
EGGP 211720Z 11004KT 9999 VCSH SCT009 BKN015 18/17 Q1019
EGGP 211650Z 10005KT 9999 VCSH SCT011 BKN015 18/17 Q1019
EGGP 211620Z 10006KT 9999 8000E VCSH SCT012 BKN016 17/17 Q1019  
EGGP 211550Z 14005KT 100V170 7000 -DZ FEW002 SCT004 BKN012 17/16 Q1020  
EGGP 211520Z 16007KT 9999 BKN012 18/16 Q1020
EGGP 211450Z 16007KT 9999 SCT013 BKN015 18/16 Q1020 
EGGP 211420Z 16008KT 9999 SCT013 BKN015 18/16 Q1020 
EGGP 211350Z 17009KT 9999 BKN014 18/15 Q1020
EGGP 211320Z 15008KT 9999 BKN014 18/16 Q1020
EGGP 211250Z 14008KT 100V170 9999 BKN014 18/15 Q1020
EGGP 211220Z 15008KT 110V170 9999 BKN011 17/15 Q1020
EGGP 211150Z 14007KT 110V170 9999 BKN011 17/15 Q1020
EGGP 211120Z 15009KT 9999 BKN011 17/15 Q1020
EGGP 211050Z 15009KT 9999 9000SW BKN011 16/15 Q1020 
EGGP 211020Z 15007KT 120V180 9999 9000SW BKN011 16/14 Q1021 
EGGP 210950Z 15011KT 120V180 9999 9000SW -DZ BKN011 16/14 Q1021 
EGGP 210920Z 15009KT 9999 -DZ BKN011 16/14 Q1021
EGGP 210850Z 15008KT 120V180 9999 BKN012 16/14 Q1021
EGGP 210820Z 14008KT 100V170 9999 BKN013 16/14 Q1020
EGGP 210750Z 14008KT 110V170 9999 BKN012 15/13 Q1021
EGGP 210720Z 13008KT 100V160 9999 BKN011 15/14 Q1020
EGGP 210650Z 12007KT 090V160 9999 FEW008 BKN012 15/13 Q1020 
EGGP 210620Z 13006KT 100V190 9999 FEW008 BKN010 14/14 Q1020 
EGGP 210550Z 12006KT 9999 FEW006 BKN010 14/14 Q1020 
EGGP 210520Z 13007KT 100V160 9000 -DZ SCT008 BKN011 14/13 Q1020 
EGGP 210450Z 14007KT 100V180 9999 SCT008 BKN011 14/13 Q1020